Briefing drone pour Chevigny-saint-sauveur

Rechercher une autre localisation

Conditions de vol :


Nous sommes le : Mardi 16 août 2022
Il est 00:36 UTC (02:36 LT)

Lever de soleil : 04:11 UTC (06:11 LT)
Coucher de soleil : 19:16 UTC (21:16 LT)

Météo

L'essentiel des conditions de vol

VIGILANCE MÉTÉO FRANCE - Côte-dOr (21)
Vigilance Jaune : Orages
CARTE TEMSI
CARTES DES FRONTS
METAR de LFSD
LFSD 160030Z AUTO VRB02KT 7000 NSC 15/15 Q1010

Date d'émission: 16/08/2022
Heure d'émission: 00:30 UTC
Vent: Variable 2 KT (4 km/h)
Visibilité horizontale: 7000 m
Plafond : Pas de nuages significatifs (NSC)
Température: 15 °C
Point de rosée: 15 °C
Humidité: 100%
Pression (QNH): 1010 hPa
TAF de LFSD
LFSD 010600Z 0100/0124 CNL

Conditions prévues :

Heure d'émission : Bulletin éffectué le 01 à 00:00 UTC
Prévision : Valide du 01 a 00:00 UTC au 01 a 23:59 UTC
Nuages : à 0ft (0 m)
WEBCAM POUR CHEVIGNY-SAINT-SAUVEUR

Réglementation

Voler en sécurité

CARTES AERONAUTIQUE 1/500.000
CARTE AZBA (Reseau basse altitude)
CARTES VAC (LFSD)
SUP AIP




Chargement des AIP...
NOTAM (CHEVIGNY-SAINT-SAUVEUR + Terrain à proximité / FIR )




Chargement des NOTAMS...
CONTACT PREFECTURE 21
Côte-dOr (21) : pref-drone@cote-dor.gouv.fr


Avertissement : Les données mises à disposition sont indicatives. Oxygène Drone ne pourra être tenu responsable de dégâts causés aux biens et aux personnes.